sensor_id;sensor_type;location;lat;lon;timestamp;P1;durP1;ratioP1;P2;durP2;ratioP2
74469;SDS011;62918;55.706;37.816;2022-10-16T00:00:25;8.25;;;4.50;;
74469;SDS011;62918;55.706;37.816;2022-10-16T00:00:56;8.18;;;4.43;;
74469;SDS011;62918;55.706;37.816;2022-10-16T00:01:27;8.20;;;4.40;;
74469;SDS011;62918;55.706;37.816;2022-10-16T00:01:59;7.88;;;4.18;;
74469;SDS011;62918;55.706;37.816;2022-10-16T00:02:30;8.63;;;4.50;;
74469;SDS011;62918;55.706;37.816;2022-10-16T00:03:01;8.70;;;4.85;;
74469;SDS011;62918;55.706;37.816;2022-10-16T00:03:31;6.70;;;4.28;;
74469;SDS011;62918;55.706;37.816;2022-10-16T00:04:02;7.72;;;4.45;;
74469;SDS011;62918;55.706;37.816;2022-10-16T00:04:33;7.85;;;4.35;;
74469;SDS011;62918;55.706;37.816;2022-10-16T00:05:04;10.13;;;4.60;;
74469;SDS011;62918;55.706;37.816;2022-10-16T00:05:41;8.30;;;4.53;;
74469;SDS011;62918;55.706;37.816;2022-10-16T00:06:13;8.48;;;4.63;;
74469;SDS011;62918;55.706;37.816;2022-10-16T00:06:45;8.95;;;4.88;;
74469;SDS011;62918;55.706;37.816;2022-10-16T00:07:16;9.25;;;4.38;;
74469;SDS011;62918;55.706;37.816;2022-10-16T00:07:46;9.23;;;4.93;;
74469;SDS011;62918;55.706;37.816;2022-10-16T00:08:17;8.25;;;4.88;;
74469;SDS011;62918;55.706;37.816;2022-10-16T00:08:48;11.35;;;5.18;;
74469;SDS011;62918;55.706;37.816;2022-10-16T00:09:19;11.82;;;5.03;;
74469;SDS011;62918;55.706;37.816;2022-10-16T00:09:50;8.65;;;5.18;;
74469;SDS011;62918;55.706;37.816;2022-10-16T00:10:20;8.20;;;4.88;;
74469;SDS011;62918;55.706;37.816;2022-10-16T00:10:51;9.60;;;5.70;;
74469;SDS011;62918;55.706;37.816;2022-10-16T00:11:23;9.32;;;5.25;;
74469;SDS011;62918;55.706;37.816;2022-10-16T00:12:03;10.50;;;5.80;;
74469;SDS011;62918;55.706;37.816;2022-10-16T00:12:36;9.90;;;5.22;;
74469;SDS011;62918;55.706;37.816;2022-10-16T00:13:07;11.10;;;4.85;;
74469;SDS011;62918;55.706;37.816;2022-10-16T00:13:39;10.75;;;4.90;;
74469;SDS011;62918;55.706;37.816;2022-10-16T00:14:12;7.28;;;4.60;;
74469;SDS011;62918;55.706;37.816;2022-10-16T00:14:44;8.70;;;5.10;;
74469;SDS011;62918;55.706;37.816;2022-10-16T00:15:15;9.18;;;4.75;;
74469;SDS011;62918;55.706;37.816;2022-10-16T00:15:46;11.85;;;5.53;;
74469;SDS011;62918;55.706;37.816;2022-10-16T00:16:16;8.35;;;5.03;;
74469;SDS011;62918;55.706;37.816;2022-10-16T00:16:48;8.43;;;4.80;;
74469;SDS011;62918;55.706;37.816;2022-10-16T00:17:18;10.07;;;5.25;;
74469;SDS011;62918;55.706;37.816;2022-10-16T00:17:49;9.55;;;4.97;;
74469;SDS011;62918;55.706;37.816;2022-10-16T00:18:19;8.35;;;5.40;;
74469;SDS011;62918;55.706;37.816;2022-10-16T00:18:50;9.98;;;5.75;;
74469;SDS011;62918;55.706;37.816;2022-10-16T00:19:20;9.68;;;5.10;;
74469;SDS011;62918;55.706;37.816;2022-10-16T00:19:51;8.45;;;5.25;;
74469;SDS011;62918;55.706;37.816;2022-10-16T00:20:40;8.27;;;4.90;;
74469;SDS011;62918;55.706;37.816;2022-10-16T00:21:29;10.48;;;5.15;;
74469;SDS011;62918;55.706;37.816;2022-10-16T00:22:19;8.82;;;5.13;;
74469;SDS011;62918;55.706;37.816;2022-10-16T00:22:53;8.23;;;4.70;;
74469;SDS011;62918;55.706;37.816;2022-10-16T00:23:24;10.10;;;5.15;;
74469;SDS011;62918;55.706;37.816;2022-10-16T00:23:58;9.88;;;5.32;;
74469;SDS011;62918;55.706;37.816;2022-10-16T00:24:30;9.18;;;5.13;;
74469;SDS011;62918;55.706;37.816;2022-10-16T00:25:01;11.05;;;5.50;;
74469;SDS011;62918;55.706;37.816;2022-10-16T00:25:33;9.32;;;5.47;;
74469;SDS011;62918;55.706;37.816;2022-10-16T00:26:06;9.20;;;5.22;;
74469;SDS011;62918;55.706;37.816;2022-10-16T00:26:39;8.30;;;4.78;;
74469;SDS011;62918;55.706;37.816;2022-10-16T00:27:10;11.40;;;5.05;;
74469;SDS011;62918;55.706;37.816;2022-10-16T00:27:40;8.52;;;5.32;;
74469;SDS011;62918;55.706;37.816;2022-10-16T00:28:11;9.73;;;5.70;;
74469;SDS011;62918;55.706;37.816;2022-10-16T00:28:42;9.02;;;5.28;;
74469;SDS011;62918;55.706;37.816;2022-10-16T00:29:12;9.02;;;5.30;;
74469;SDS011;62918;55.706;37.816;2022-10-16T00:29:43;11.50;;;4.78;;
74469;SDS011;62918;55.706;37.816;2022-10-16T00:30:13;9.07;;;4.88;;
74469;SDS011;62918;55.706;37.816;2022-10-16T00:30:44;10.02;;;5.03;;
74469;SDS011;62918;55.706;37.816;2022-10-16T00:31:15;9.80;;;5.53;;
74469;SDS011;62918;55.706;37.816;2022-10-16T00:31:47;9.90;;;4.97;;
74469;SDS011;62918;55.706;37.816;2022-10-16T00:32:18;9.68;;;5.40;;
74469;SDS011;62918;55.706;37.816;2022-10-16T00:32:49;11.10;;;5.38;;
74469;SDS011;62918;55.706;37.816;2022-10-16T00:33:20;14.10;;;5.53;;
74469;SDS011;62918;55.706;37.816;2022-10-16T00:33:51;8.93;;;5.00;;
74469;SDS011;62918;55.706;37.816;2022-10-16T00:34:22;9.02;;;4.90;;
74469;SDS011;62918;55.706;37.816;2022-10-16T00:34:53;9.82;;;5.35;;
74469;SDS011;62918;55.706;37.816;2022-10-16T00:35:24;11.07;;;5.55;;
74469;SDS011;62918;55.706;37.816;2022-10-16T00:35:57;10.00;;;5.35;;
74469;SDS011;62918;55.706;37.816;2022-10-16T00:36:28;11.30;;;5.45;;
74469;SDS011;62918;55.706;37.816;2022-10-16T00:37:00;8.95;;;5.50;;
74469;SDS011;62918;55.706;37.816;2022-10-16T00:37:31;10.38;;;5.05;;
74469;SDS011;62918;55.706;37.816;2022-10-16T00:38:01;9.05;;;5.45;;
74469;SDS011;62918;55.706;37.816;2022-10-16T00:38:32;13.65;;;5.82;;
74469;SDS011;62918;55.706;37.816;2022-10-16T00:39:03;9.95;;;5.25;;
74469;SDS011;62918;55.706;37.816;2022-10-16T00:39:33;14.15;;;5.55;;
74469;SDS011;62918;55.706;37.816;2022-10-16T00:40:04;11.52;;;5.43;;
74469;SDS011;62918;55.706;37.816;2022-10-16T00:40:35;9.65;;;5.20;;
74469;SDS011;62918;55.706;37.816;2022-10-16T00:41:06;12.23;;;5.57;;
74469;SDS011;62918;55.706;37.816;2022-10-16T00:41:38;12.75;;;5.43;;
74469;SDS011;62918;55.706;37.816;2022-10-16T00:42:11;8.98;;;5.45;;
74469;SDS011;62918;55.706;37.816;2022-10-16T00:42:45;8.98;;;5.18;;
74469;SDS011;62918;55.706;37.816;2022-10-16T00:44:41;10.65;;;5.45;;
74469;SDS011;62918;55.706;37.816;2022-10-16T00:45:15;8.18;;;4.30;;
74469;SDS011;62918;55.706;37.816;2022-10-16T00:45:45;9.60;;;5.45;;
74469;SDS011;62918;55.706;37.816;2022-10-16T00:46:57;8.60;;;5.10;;
74469;SDS011;62918;55.706;37.816;2022-10-16T00:47:38;11.40;;;5.25;;
74469;SDS011;62918;55.706;37.816;2022-10-16T00:48:12;11.38;;;5.65;;
74469;SDS011;62918;55.706;37.816;2022-10-16T00:48:49;10.90;;;5.43;;
74469;SDS011;62918;55.706;37.816;2022-10-16T00:49:24;11.27;;;5.70;;
74469;SDS011;62918;55.706;37.816;2022-10-16T00:50:28;8.73;;;5.40;;
74469;SDS011;62918;55.706;37.816;2022-10-16T00:51:00;12.13;;;5.82;;
74469;SDS011;62918;55.706;37.816;2022-10-16T00:52:12;11.55;;;5.55;;
74469;SDS011;62918;55.706;37.816;2022-10-16T00:52:24;10.02;;;4.90;;
74469;SDS011;62918;55.706;37.816;2022-10-16T00:52:55;7.55;;;4.65;;
74469;SDS011;62918;55.706;37.816;2022-10-16T00:53:27;10.13;;;5.78;;
74469;SDS011;62918;55.706;37.816;2022-10-16T00:53:58;9.70;;;5.15;;
74469;SDS011;62918;55.706;37.816;2022-10-16T00:54:30;11.88;;;5.35;;
74469;SDS011;62918;55.706;37.816;2022-10-16T00:55:02;8.82;;;5.25;;
74469;SDS011;62918;55.706;37.816;2022-10-16T00:55:35;7.78;;;5.00;;
74469;SDS011;62918;55.706;37.816;2022-10-16T00:56:06;9.35;;;5.60;;
74469;SDS011;62918;55.706;37.816;2022-10-16T00:56:37;8.63;;;5.38;;
74469;SDS011;62918;55.706;37.816;2022-10-16T00:57:08;12.90;;;5.72;;
74469;SDS011;62918;55.706;37.816;2022-10-16T00:57:39;10.55;;;5.45;;
74469;SDS011;62918;55.706;37.816;2022-10-16T00:58:09;11.20;;;5.70;;
74469;SDS011;62918;55.706;37.816;2022-10-16T00:58:41;12.50;;;5.70;;
74469;SDS011;62918;55.706;37.816;2022-10-16T00:59:14;9.35;;;5.40;;
74469;SDS011;62918;55.706;37.816;2022-10-16T00:59:48;10.68;;;5.30;;
74469;SDS011;62918;55.706;37.816;2022-10-16T01:00:21;11.77;;;5.53;;
74469;SDS011;62918;55.706;37.816;2022-10-16T01:00:53;10.68;;;6.00;;
74469;SDS011;62918;55.706;37.816;2022-10-16T01:01:24;10.70;;;5.50;;
74469;SDS011;62918;55.706;37.816;2022-10-16T01:01:55;9.13;;;4.90;;
74469;SDS011;62918;55.706;37.816;2022-10-16T01:02:26;11.70;;;5.22;;
74469;SDS011;62918;55.706;37.816;2022-10-16T01:02:58;11.05;;;5.80;;
74469;SDS011;62918;55.706;37.816;2022-10-16T01:03:31;11.27;;;5.78;;
74469;SDS011;62918;55.706;37.816;2022-10-16T01:04:04;9.25;;;5.40;;
74469;SDS011;62918;55.706;37.816;2022-10-16T01:04:35;10.50;;;5.68;;
74469;SDS011;62918;55.706;37.816;2022-10-16T01:05:18;10.60;;;5.60;;
74469;SDS011;62918;55.706;37.816;2022-10-16T01:05:51;9.85;;;5.50;;
74469;SDS011;62918;55.706;37.816;2022-10-16T01:06:38;8.98;;;5.35;;
74469;SDS011;62918;55.706;37.816;2022-10-16T01:07:56;11.75;;;5.78;;
74469;SDS011;62918;55.706;37.816;2022-10-16T01:08:36;9.50;;;5.28;;
74469;SDS011;62918;55.706;37.816;2022-10-16T01:09:30;9.63;;;4.65;;
74469;SDS011;62918;55.706;37.816;2022-10-16T01:10:14;10.88;;;5.90;;
74469;SDS011;62918;55.706;37.816;2022-10-16T01:12:26;10.55;;;5.00;;
74469;SDS011;62918;55.706;37.816;2022-10-16T01:12:40;10.63;;;5.13;;
74469;SDS011;62918;55.706;37.816;2022-10-16T01:13:35;8.85;;;5.18;;
74469;SDS011;62918;55.706;37.816;2022-10-16T01:14:21;11.18;;;5.05;;
74469;SDS011;62918;55.706;37.816;2022-10-16T01:14:53;9.77;;;5.15;;
74469;SDS011;62918;55.706;37.816;2022-10-16T01:16:34;8.95;;;5.00;;
74469;SDS011;62918;55.706;37.816;2022-10-16T01:17:12;8.15;;;4.82;;
74469;SDS011;62918;55.706;37.816;2022-10-16T01:17:49;9.30;;;4.85;;
74469;SDS011;62918;55.706;37.816;2022-10-16T01:18:41;8.75;;;4.82;;
74469;SDS011;62918;55.706;37.816;2022-10-16T01:20:00;10.13;;;5.13;;
74469;SDS011;62918;55.706;37.816;2022-10-16T01:21:10;8.88;;;4.50;;
74469;SDS011;62918;55.706;37.816;2022-10-16T01:22:07;9.52;;;4.45;;
74469;SDS011;62918;55.706;37.816;2022-10-16T01:24:33;8.82;;;4.53;;
74469;SDS011;62918;55.706;37.816;2022-10-16T01:25:12;8.60;;;4.30;;
74469;SDS011;62918;55.706;37.816;2022-10-16T01:26:03;9.13;;;5.13;;
74469;SDS011;62918;55.706;37.816;2022-10-16T01:27:07;10.32;;;4.68;;
74469;SDS011;62918;55.706;37.816;2022-10-16T01:27:39;9.07;;;4.32;;
74469;SDS011;62918;55.706;37.816;2022-10-16T01:28:15;9.18;;;4.40;;
74469;SDS011;62918;55.706;37.816;2022-10-16T01:28:55;8.18;;;4.53;;
74469;SDS011;62918;55.706;37.816;2022-10-16T01:29:30;8.20;;;4.25;;
74469;SDS011;62918;55.706;37.816;2022-10-16T01:30:15;10.55;;;4.70;;
74469;SDS011;62918;55.706;37.816;2022-10-16T01:30:51;10.48;;;4.70;;
74469;SDS011;62918;55.706;37.816;2022-10-16T01:31:26;9.68;;;4.28;;
74469;SDS011;62918;55.706;37.816;2022-10-16T01:32:04;9.73;;;4.90;;
74469;SDS011;62918;55.706;37.816;2022-10-16T01:32:43;10.43;;;4.85;;
74469;SDS011;62918;55.706;37.816;2022-10-16T01:33:20;8.63;;;4.10;;
74469;SDS011;62918;55.706;37.816;2022-10-16T01:34:02;7.93;;;4.45;;
74469;SDS011;62918;55.706;37.816;2022-10-16T01:34:37;9.30;;;4.82;;
74469;SDS011;62918;55.706;37.816;2022-10-16T01:35:57;9.45;;;5.00;;
74469;SDS011;62918;55.706;37.816;2022-10-16T01:36:37;8.32;;;4.45;;
74469;SDS011;62918;55.706;37.816;2022-10-16T01:37:15;6.68;;;4.28;;
74469;SDS011;62918;55.706;37.816;2022-10-16T01:38:51;8.68;;;4.57;;
74469;SDS011;62918;55.706;37.816;2022-10-16T01:39:28;12.05;;;5.53;;
74469;SDS011;62918;55.706;37.816;2022-10-16T01:40:03;9.07;;;4.80;;
74469;SDS011;62918;55.706;37.816;2022-10-16T01:40:39;12.10;;;4.90;;
74469;SDS011;62918;55.706;37.816;2022-10-16T01:41:19;10.63;;;4.80;;
74469;SDS011;62918;55.706;37.816;2022-10-16T01:41:56;7.70;;;4.10;;
74469;SDS011;62918;55.706;37.816;2022-10-16T01:42:39;8.63;;;4.65;;
74469;SDS011;62918;55.706;37.816;2022-10-16T01:43:17;9.52;;;5.05;;
74469;SDS011;62918;55.706;37.816;2022-10-16T01:43:57;9.15;;;4.05;;
74469;SDS011;62918;55.706;37.816;2022-10-16T01:44:34;7.88;;;4.57;;
74469;SDS011;62918;55.706;37.816;2022-10-16T01:45:08;9.35;;;5.30;;
74469;SDS011;62918;55.706;37.816;2022-10-16T01:45:44;12.60;;;4.20;;
74469;SDS011;62918;55.706;37.816;2022-10-16T01:46:17;9.60;;;4.97;;
74469;SDS011;62918;55.706;37.816;2022-10-16T01:46:50;8.57;;;4.93;;
74469;SDS011;62918;55.706;37.816;2022-10-16T01:47:23;9.38;;;4.50;;
74469;SDS011;62918;55.706;37.816;2022-10-16T01:47:56;8.07;;;4.70;;
74469;SDS011;62918;55.706;37.816;2022-10-16T01:48:30;8.27;;;4.28;;
74469;SDS011;62918;55.706;37.816;2022-10-16T01:49:02;7.25;;;4.38;;
74469;SDS011;62918;55.706;37.816;2022-10-16T01:50:07;8.77;;;4.50;;
74469;SDS011;62918;55.706;37.816;2022-10-16T01:50:39;7.30;;;4.13;;
74469;SDS011;62918;55.706;37.816;2022-10-16T01:51:12;8.18;;;4.10;;
74469;SDS011;62918;55.706;37.816;2022-10-16T01:51:45;8.48;;;4.18;;
74469;SDS011;62918;55.706;37.816;2022-10-16T01:52:20;9.18;;;4.53;;
74469;SDS011;62918;55.706;37.816;2022-10-16T01:52:54;8.82;;;4.70;;
74469;SDS011;62918;55.706;37.816;2022-10-16T01:53:27;8.85;;;5.25;;
74469;SDS011;62918;55.706;37.816;2022-10-16T01:54:00;7.65;;;4.28;;
74469;SDS011;62918;55.706;37.816;2022-10-16T01:54:32;8.13;;;4.38;;
74469;SDS011;62918;55.706;37.816;2022-10-16T01:55:05;7.15;;;3.83;;
74469;SDS011;62918;55.706;37.816;2022-10-16T01:55:38;7.68;;;4.03;;
74469;SDS011;62918;55.706;37.816;2022-10-16T01:56:14;7.55;;;4.25;;
74469;SDS011;62918;55.706;37.816;2022-10-16T01:56:48;6.85;;;3.72;;
74469;SDS011;62918;55.706;37.816;2022-10-16T01:57:21;9.13;;;4.40;;
74469;SDS011;62918;55.706;37.816;2022-10-16T01:57:54;7.25;;;4.22;;
74469;SDS011;62918;55.706;37.816;2022-10-16T01:58:26;7.88;;;4.90;;
74469;SDS011;62918;55.706;37.816;2022-10-16T01:59:02;7.63;;;4.22;;
74469;SDS011;62918;55.706;37.816;2022-10-16T01:59:47;8.88;;;4.25;;
74469;SDS011;62918;55.706;37.816;2022-10-16T02:00:22;7.97;;;4.38;;
74469;SDS011;62918;55.706;37.816;2022-10-16T02:00:53;8.27;;;4.20;;
74469;SDS011;62918;55.706;37.816;2022-10-16T02:01:25;9.48;;;5.50;;
74469;SDS011;62918;55.706;37.816;2022-10-16T02:02:00;10.52;;;5.18;;
74469;SDS011;62918;55.706;37.816;2022-10-16T02:02:34;9.00;;;4.80;;
74469;SDS011;62918;55.706;37.816;2022-10-16T02:03:04;7.57;;;4.78;;
74469;SDS011;62918;55.706;37.816;2022-10-16T02:03:37;11.68;;;4.93;;
74469;SDS011;62918;55.706;37.816;2022-10-16T02:04:22;7.10;;;4.28;;
74469;SDS011;62918;55.706;37.816;2022-10-16T02:04:58;9.10;;;4.63;;
74469;SDS011;62918;55.706;37.816;2022-10-16T02:05:40;8.30;;;4.93;;
74469;SDS011;62918;55.706;37.816;2022-10-16T02:06:15;8.25;;;4.90;;
74469;SDS011;62918;55.706;37.816;2022-10-16T02:06:45;9.48;;;5.00;;
74469;SDS011;62918;55.706;37.816;2022-10-16T02:07:16;8.43;;;4.78;;
74469;SDS011;62918;55.706;37.816;2022-10-16T02:07:47;8.60;;;4.57;;
74469;SDS011;62918;55.706;37.816;2022-10-16T02:08:19;10.43;;;4.43;;
74469;SDS011;62918;55.706;37.816;2022-10-16T02:08:50;10.07;;;4.90;;
74469;SDS011;62918;55.706;37.816;2022-10-16T02:09:21;7.10;;;4.00;;
74469;SDS011;62918;55.706;37.816;2022-10-16T02:09:52;11.25;;;5.45;;
74469;SDS011;62918;55.706;37.816;2022-10-16T02:10:23;8.13;;;5.18;;
74469;SDS011;62918;55.706;37.816;2022-10-16T02:10:55;8.00;;;4.95;;
74469;SDS011;62918;55.706;37.816;2022-10-16T02:11:30;8.38;;;4.95;;
74469;SDS011;62918;55.706;37.816;2022-10-16T02:13:14;10.40;;;4.93;;
74469;SDS011;62918;55.706;37.816;2022-10-16T02:13:48;7.50;;;4.18;;
74469;SDS011;62918;55.706;37.816;2022-10-16T02:14:27;8.95;;;4.63;;
74469;SDS011;62918;55.706;37.816;2022-10-16T02:15:04;7.63;;;4.32;;
74469;SDS011;62918;55.706;37.816;2022-10-16T02:15:35;7.90;;;4.50;;
74469;SDS011;62918;55.706;37.816;2022-10-16T02:16:09;6.57;;;4.05;;
74469;SDS011;62918;55.706;37.816;2022-10-16T02:16:44;6.63;;;4.28;;
74469;SDS011;62918;55.706;37.816;2022-10-16T02:17:17;8.27;;;4.68;;
74469;SDS011;62918;55.706;37.816;2022-10-16T02:17:48;7.85;;;4.25;;
74469;SDS011;62918;55.706;37.816;2022-10-16T02:18:21;9.35;;;4.93;;
74469;SDS011;62918;55.706;37.816;2022-10-16T02:18:52;10.25;;;5.05;;
74469;SDS011;62918;55.706;37.816;2022-10-16T02:19:22;7.90;;;4.50;;
74469;SDS011;62918;55.706;37.816;2022-10-16T02:20:01;9.77;;;4.40;;
74469;SDS011;62918;55.706;37.816;2022-10-16T02:20:40;8.65;;;5.25;;
74469;SDS011;62918;55.706;37.816;2022-10-16T02:21:23;12.55;;;5.45;;
74469;SDS011;62918;55.706;37.816;2022-10-16T02:22:00;10.60;;;4.82;;
74469;SDS011;62918;55.706;37.816;2022-10-16T02:22:35;9.52;;;4.55;;
74469;SDS011;62918;55.706;37.816;2022-10-16T02:23:10;8.82;;;5.32;;
74469;SDS011;62918;55.706;37.816;2022-10-16T02:23:50;10.25;;;5.13;;
74469;SDS011;62918;55.706;37.816;2022-10-16T02:24:35;6.97;;;4.28;;
74469;SDS011;62918;55.706;37.816;2022-10-16T02:25:24;8.23;;;4.10;;
74469;SDS011;62918;55.706;37.816;2022-10-16T02:25:59;7.82;;;4.10;;
74469;SDS011;62918;55.706;37.816;2022-10-16T02:26:40;6.43;;;4.00;;
74469;SDS011;62918;55.706;37.816;2022-10-16T02:28:03;8.23;;;4.07;;
74469;SDS011;62918;55.706;37.816;2022-10-16T02:28:42;8.32;;;5.13;;
74469;SDS011;62918;55.706;37.816;2022-10-16T02:29:17;8.07;;;4.57;;
74469;SDS011;62918;55.706;37.816;2022-10-16T02:31:10;8.18;;;4.72;;
74469;SDS011;62918;55.706;37.816;2022-10-16T02:31:50;7.90;;;4.30;;
74469;SDS011;62918;55.706;37.816;2022-10-16T02:32:30;7.25;;;4.22;;
74469;SDS011;62918;55.706;37.816;2022-10-16T02:33:07;10.70;;;5.00;;
74469;SDS011;62918;55.706;37.816;2022-10-16T02:33:41;12.38;;;4.80;;
74469;SDS011;62918;55.706;37.816;2022-10-16T02:34:13;9.23;;;4.25;;
74469;SDS011;62918;55.706;37.816;2022-10-16T02:35:18;7.30;;;4.43;;
74469;SDS011;62918;55.706;37.816;2022-10-16T02:35:54;9.00;;;4.57;;
74469;SDS011;62918;55.706;37.816;2022-10-16T02:36:27;8.13;;;4.55;;
74469;SDS011;62918;55.706;37.816;2022-10-16T02:36:58;9.77;;;5.38;;
74469;SDS011;62918;55.706;37.816;2022-10-16T02:37:31;8.75;;;4.55;;
74469;SDS011;62918;55.706;37.816;2022-10-16T02:38:02;10.95;;;5.07;;
74469;SDS011;62918;55.706;37.816;2022-10-16T02:38:34;8.77;;;4.93;;
74469;SDS011;62918;55.706;37.816;2022-10-16T02:39:06;10.65;;;5.40;;
74469;SDS011;62918;55.706;37.816;2022-10-16T02:39:38;8.77;;;4.57;;
74469;SDS011;62918;55.706;37.816;2022-10-16T02:40:09;8.32;;;4.80;;
74469;SDS011;62918;55.706;37.816;2022-10-16T02:40:41;8.05;;;4.97;;
74469;SDS011;62918;55.706;37.816;2022-10-16T02:41:12;12.57;;;4.55;;
74469;SDS011;62918;55.706;37.816;2022-10-16T02:41:44;10.05;;;5.68;;
74469;SDS011;62918;55.706;37.816;2022-10-16T02:42:15;9.93;;;4.78;;
74469;SDS011;62918;55.706;37.816;2022-10-16T02:42:49;7.65;;;4.20;;
74469;SDS011;62918;55.706;37.816;2022-10-16T02:43:21;9.98;;;4.72;;
74469;SDS011;62918;55.706;37.816;2022-10-16T02:43:52;9.60;;;5.35;;
74469;SDS011;62918;55.706;37.816;2022-10-16T02:44:22;8.05;;;3.85;;
74469;SDS011;62918;55.706;37.816;2022-10-16T02:44:53;8.10;;;5.00;;
74469;SDS011;62918;55.706;37.816;2022-10-16T02:45:24;6.80;;;4.18;;
74469;SDS011;62918;55.706;37.816;2022-10-16T02:45:55;7.88;;;4.47;;
74469;SDS011;62918;55.706;37.816;2022-10-16T02:46:25;6.90;;;3.97;;
74469;SDS011;62918;55.706;37.816;2022-10-16T02:46:56;8.45;;;4.32;;
74469;SDS011;62918;55.706;37.816;2022-10-16T02:47:27;7.88;;;4.25;;
74469;SDS011;62918;55.706;37.816;2022-10-16T02:47:57;8.52;;;4.35;;
74469;SDS011;62918;55.706;37.816;2022-10-16T02:48:28;9.65;;;4.55;;
74469;SDS011;62918;55.706;37.816;2022-10-16T02:48:58;8.25;;;4.45;;
74469;SDS011;62918;55.706;37.816;2022-10-16T02:49:29;8.88;;;4.60;;
74469;SDS011;62918;55.706;37.816;2022-10-16T02:49:59;7.78;;;4.13;;
74469;SDS011;62918;55.706;37.816;2022-10-16T02:50:30;7.32;;;3.55;;
74469;SDS011;62918;55.706;37.816;2022-10-16T02:51:01;7.57;;;3.92;;
74469;SDS011;62918;55.706;37.816;2022-10-16T02:51:31;7.18;;;4.38;;
74469;SDS011;62918;55.706;37.816;2022-10-16T02:52:02;8.82;;;4.45;;
74469;SDS011;62918;55.706;37.816;2022-10-16T02:52:33;6.53;;;3.88;;
74469;SDS011;62918;55.706;37.816;2022-10-16T02:53:03;5.72;;;3.85;;
74469;SDS011;62918;55.706;37.816;2022-10-16T02:53:34;8.05;;;4.45;;
74469;SDS011;62918;55.706;37.816;2022-10-16T02:54:04;7.93;;;4.18;;
74469;SDS011;62918;55.706;37.816;2022-10-16T02:54:35;7.25;;;4.15;;
74469;SDS011;62918;55.706;37.816;2022-10-16T02:55:05;9.65;;;5.38;;
74469;SDS011;62918;55.706;37.816;2022-10-16T02:55:36;8.95;;;4.70;;
74469;SDS011;62918;55.706;37.816;2022-10-16T02:56:07;8.05;;;4.82;;
74469;SDS011;62918;55.706;37.816;2022-10-16T02:56:38;11.02;;;5.07;;
74469;SDS011;62918;55.706;37.816;2022-10-16T02:57:08;8.60;;;4.45;;
74469;SDS011;62918;55.706;37.816;2022-10-16T02:57:39;9.88;;;5.10;;
74469;SDS011;62918;55.706;37.816;2022-10-16T02:58:10;8.20;;;4.70;;
74469;SDS011;62918;55.706;37.816;2022-10-16T02:58:40;7.65;;;4.28;;
74469;SDS011;62918;55.706;37.816;2022-10-16T02:59:11;9.20;;;4.50;;
74469;SDS011;62918;55.706;37.816;2022-10-16T02:59:41;7.72;;;4.00;;
74469;SDS011;62918;55.706;37.816;2022-10-16T03:00:13;9.68;;;4.85;;
74469;SDS011;62918;55.706;37.816;2022-10-16T03:00:45;9.27;;;4.88;;
74469;SDS011;62918;55.706;37.816;2022-10-16T03:01:16;6.95;;;4.35;;
74469;SDS011;62918;55.706;37.816;2022-10-16T03:01:46;8.90;;;4.85;;
74469;SDS011;62918;55.706;37.816;2022-10-16T03:02:17;8.80;;;4.78;;
74469;SDS011;62918;55.706;37.816;2022-10-16T03:02:48;8.52;;;4.88;;
74469;SDS011;62918;55.706;37.816;2022-10-16T03:03:18;8.00;;;4.90;;
74469;SDS011;62918;55.706;37.816;2022-10-16T03:03:49;7.30;;;3.90;;
74469;SDS011;62918;55.706;37.816;2022-10-16T03:04:20;8.07;;;4.20;;
74469;SDS011;62918;55.706;37.816;2022-10-16T03:04:50;9.27;;;4.88;;
74469;SDS011;62918;55.706;37.816;2022-10-16T03:05:21;9.05;;;3.85;;
74469;SDS011;62918;55.706;37.816;2022-10-16T03:05:51;7.15;;;3.55;;
74469;SDS011;62918;55.706;37.816;2022-10-16T03:06:21;9.65;;;4.22;;
74469;SDS011;62918;55.706;37.816;2022-10-16T03:06:52;6.97;;;3.70;;
74469;SDS011;62918;55.706;37.816;2022-10-16T03:07:23;9.88;;;3.60;;
74469;SDS011;62918;55.706;37.816;2022-10-16T03:07:53;7.88;;;4.38;;
74469;SDS011;62918;55.706;37.816;2022-10-16T03:08:24;7.35;;;3.85;;
74469;SDS011;62918;55.706;37.816;2022-10-16T03:08:55;8.27;;;4.28;;
74469;SDS011;62918;55.706;37.816;2022-10-16T03:09:25;7.32;;;4.25;;
74469;SDS011;62918;55.706;37.816;2022-10-16T03:09:56;7.88;;;4.35;;
74469;SDS011;62918;55.706;37.816;2022-10-16T03:10:27;7.30;;;4.20;;
74469;SDS011;62918;55.706;37.816;2022-10-16T03:10:58;6.55;;;3.70;;
74469;SDS011;62918;55.706;37.816;2022-10-16T03:11:28;7.65;;;3.88;;
74469;SDS011;62918;55.706;37.816;2022-10-16T03:11:59;7.10;;;3.85;;
74469;SDS011;62918;55.706;37.816;2022-10-16T03:12:29;6.68;;;3.40;;
74469;SDS011;62918;55.706;37.816;2022-10-16T03:13:00;7.30;;;3.70;;
74469;SDS011;62918;55.706;37.816;2022-10-16T03:13:31;7.18;;;4.00;;
74469;SDS011;62918;55.706;37.816;2022-10-16T03:14:01;6.45;;;3.58;;
74469;SDS011;62918;55.706;37.816;2022-10-16T03:14:33;6.85;;;4.13;;
74469;SDS011;62918;55.706;37.816;2022-10-16T03:15:04;6.75;;;4.10;;
74469;SDS011;62918;55.706;37.816;2022-10-16T03:15:35;6.78;;;4.13;;
74469;SDS011;62918;55.706;37.816;2022-10-16T03:16:05;6.05;;;3.53;;
74469;SDS011;62918;55.706;37.816;2022-10-16T03:16:36;6.55;;;3.42;;
74469;SDS011;62918;55.706;37.816;2022-10-16T03:17:06;7.45;;;3.75;;
74469;SDS011;62918;55.706;37.816;2022-10-16T03:17:37;8.75;;;3.72;;
74469;SDS011;62918;55.706;37.816;2022-10-16T03:18:07;6.45;;;3.85;;
74469;SDS011;62918;55.706;37.816;2022-10-16T03:18:38;6.82;;;3.92;;
74469;SDS011;62918;55.706;37.816;2022-10-16T03:19:08;7.80;;;3.80;;
74469;SDS011;62918;55.706;37.816;2022-10-16T03:19:39;7.03;;;3.83;;
74469;SDS011;62918;55.706;37.816;2022-10-16T03:20:09;8.45;;;4.30;;
74469;SDS011;62918;55.706;37.816;2022-10-16T03:20:40;6.68;;;3.90;;
74469;SDS011;62918;55.706;37.816;2022-10-16T03:21:12;7.93;;;4.53;;
74469;SDS011;62918;55.706;37.816;2022-10-16T03:21:43;8.57;;;4.35;;
74469;SDS011;62918;55.706;37.816;2022-10-16T03:22:13;8.60;;;4.82;;
74469;SDS011;62918;55.706;37.816;2022-10-16T03:22:44;7.95;;;4.18;;
74469;SDS011;62918;55.706;37.816;2022-10-16T03:23:15;6.88;;;3.95;;
74469;SDS011;62918;55.706;37.816;2022-10-16T03:23:45;8.00;;;4.65;;
74469;SDS011;62918;55.706;37.816;2022-10-16T03:24:16;9.63;;;5.07;;
74469;SDS011;62918;55.706;37.816;2022-10-16T03:24:47;6.57;;;3.80;;
74469;SDS011;62918;55.706;37.816;2022-10-16T03:25:17;8.52;;;4.78;;
74469;SDS011;62918;55.706;37.816;2022-10-16T03:25:48;6.30;;;4.05;;
74469;SDS011;62918;55.706;37.816;2022-10-16T03:26:18;8.32;;;4.38;;
74469;SDS011;62918;55.706;37.816;2022-10-16T03:26:49;7.55;;;4.65;;
74469;SDS011;62918;55.706;37.816;2022-10-16T03:27:19;7.85;;;4.03;;
74469;SDS011;62918;55.706;37.816;2022-10-16T03:27:50;8.23;;;4.55;;
74469;SDS011;62918;55.706;37.816;2022-10-16T03:28:20;7.47;;;3.67;;
74469;SDS011;62918;55.706;37.816;2022-10-16T03:28:51;11.20;;;4.75;;
74469;SDS011;62918;55.706;37.816;2022-10-16T03:29:22;7.57;;;4.47;;
74469;SDS011;62918;55.706;37.816;2022-10-16T03:29:52;8.13;;;4.45;;
74469;SDS011;62918;55.706;37.816;2022-10-16T03:30:23;6.18;;;4.05;;
74469;SDS011;62918;55.706;37.816;2022-10-16T03:30:53;10.77;;;4.43;;
74469;SDS011;62918;55.706;37.816;2022-10-16T03:31:24;6.20;;;3.78;;
74469;SDS011;62918;55.706;37.816;2022-10-16T03:31:55;8.30;;;4.38;;
74469;SDS011;62918;55.706;37.816;2022-10-16T03:32:26;7.35;;;4.03;;
74469;SDS011;62918;55.706;37.816;2022-10-16T03:32:58;7.97;;;4.28;;